Time;durP1;ratioP1;P1;durP2;ratioP2;P2;SDS_P1;SDS_P2;PMS_P1;PMS_P2;Temp;Humidity;BMP_temperature;BMP_pressure;BME280_temperature;BME280_humidity;BME280_pressure;Samples;Min_cycle;Max_cycle;Signal;HPM_P1;HPM_P2
2022/10/02 00:02:13;;;;;;;9.07;2.67;;;11.70;99.90;;;;;;5091386;28;20071;-79
2022/10/02 00:04:57;;;;;;;9.57;3.13;;;11.70;99.90;;;;;;5091797;28;20235;-79
2022/10/02 00:07:53;;;;;;;9.77;2.80;;;11.70;99.90;;;;;;5091895;28;20036;-79
2022/10/02 00:10:50;;;;;;;7.85;2.58;;;11.60;99.90;;;;;;5092502;28;20040;-80
2022/10/02 00:13:23;;;;;;;10.98;2.78;;;11.60;99.90;;;;;;5057195;28;20506;-79
2022/10/02 00:15:51;;;;;;;11.73;3.22;;;11.50;99.90;;;;;;5091681;28;20366;-80
2022/10/02 00:18:24;;;;;;;8.18;2.45;;;11.50;99.90;;;;;;5091034;28;20551;-79
2022/10/02 00:20:59;;;;;;;;;;;11.40;99.90;;;;;;5074356;28;20079;-80
2022/10/02 00:23:45;;;;;;;5.55;2.10;;;11.40;99.90;;;;;;5073530;28;19916;-80
2022/10/02 00:26:46;;;;;;;10.60;2.67;;;11.30;99.90;;;;;;5091471;28;20692;-79
2022/10/02 00:29:31;;;;;;;7.03;2.50;;;11.30;99.90;;;;;;5081453;28;20044;-79
2022/10/02 00:32:19;;;;;;;10.00;2.92;;;11.20;99.90;;;;;;5091348;28;20040;-79
2022/10/02 00:35:10;;;;;;;9.50;3.10;;;11.20;99.90;;;;;;5074252;28;20040;-79
2022/10/02 00:37:56;;;;;;;10.95;3.22;;;11.20;99.90;;;;;;5090041;28;20047;-79
2022/10/02 00:40:41;;;;;;;13.65;3.17;;;11.20;99.90;;;;;;5090856;28;20044;-79
2022/10/02 00:43:35;;;;;;;10.88;3.20;;;11.10;99.90;;;;;;5091003;28;20040;-79
2022/10/02 00:46:29;;;;;;;11.82;3.25;;;11.10;99.90;;;;;;5038584;28;20052;-79
2022/10/02 00:49:09;;;;;;;11.20;3.08;;;11.10;99.90;;;;;;5091366;28;20390;-79
2022/10/02 00:52:12;;;;;;;27.10;3.00;;;11.10;99.90;;;;;;5090810;28;20036;-80
2022/10/02 00:55:00;;;;;;;7.93;3.35;;;11.10;99.90;;;;;;5091246;28;20508;-79
2022/10/02 00:57:34;;;;;;;10.15;2.97;;;11.10;99.90;;;;;;5090816;28;20119;-79
2022/10/02 01:00:18;;;;;;;17.48;3.13;;;11.00;99.90;;;;;;5074140;28;20131;-79
2022/10/02 01:03:22;;;;;;;8.90;2.63;;;11.00;99.90;;;;;;5090763;28;20044;-79
2022/10/02 01:05:49;;;;;;;9.52;2.58;;;11.00;99.90;;;;;;5090081;28;20079;-79
2022/10/02 01:08:15;;;;;;;13.73;2.78;;;11.00;99.90;;;;;;5090038;28;20028;-79
2022/10/02 01:10:42;;;;;;;12.75;2.80;;;11.00;99.90;;;;;;5090417;28;20038;-79
2022/10/02 01:13:08;;;;;;;11.25;3.08;;;11.00;99.90;;;;;;5090739;28;20071;-79
2022/10/02 01:15:39;;;;;;;17.30;3.35;;;10.90;99.90;;;;;;5090865;28;20043;-79
2022/10/02 01:18:06;;;;;;;14.85;2.92;;;10.90;99.90;;;;;;5090918;28;20036;-79
2022/10/02 01:20:36;;;;;;;9.52;2.75;;;10.90;99.90;;;;;;5074053;28;20048;-79
2022/10/02 01:23:27;;;;;;;11.77;3.03;;;10.80;99.90;;;;;;5090602;28;20032;-79
2022/10/02 01:25:52;;;;;;;11.32;2.47;;;10.80;99.90;;;;;;5090757;28;20036;-79
2022/10/02 01:28:19;;;;;;;11.45;3.17;;;10.80;99.90;;;;;;5091087;28;20044;-79
2022/10/02 01:30:48;;;;;;;11.80;2.60;;;10.80;99.90;;;;;;5091148;28;20375;-79
2022/10/02 01:33:14;;;;;;;14.98;3.10;;;10.80;99.90;;;;;;5090563;28;20034;-79
2022/10/02 01:35:41;;;;;;;11.10;2.45;;;10.80;99.90;;;;;;5090876;28;20039;-79
2022/10/02 01:38:11;;;;;;;14.77;2.90;;;10.80;99.90;;;;;;5090508;28;20036;-79
2022/10/02 01:40:38;;;;;;;9.05;2.10;;;10.80;99.90;;;;;;5090741;28;20040;-79
2022/10/02 01:43:17;;;;;;;8.98;2.25;;;10.80;99.90;;;;;;5090349;28;20563;-79
2022/10/02 01:46:04;;;;;;;12.63;2.30;;;10.80;99.90;;;;;;5090783;28;20040;-79
2022/10/02 01:48:48;;;;;;;9.95;2.17;;;10.80;99.90;;;;;;5091416;28;20079;-79
2022/10/02 01:51:40;;;;;;;13.23;2.70;;;10.90;99.90;;;;;;5090361;28;20051;-79
2022/10/02 01:54:22;;;;;;;14.02;2.47;;;10.90;99.90;;;;;;5090725;28;20074;-78
2022/10/02 01:57:17;;;;;;;12.88;2.80;;;10.90;99.90;;;;;;5091906;28;20405;-79
2022/10/02 02:00:04;;;;;;;11.27;2.17;;;10.90;99.90;;;;;;5094571;28;20040;-79
2022/10/02 02:02:55;;;;;;;14.93;2.70;;;10.90;99.90;;;;;;5093882;28;20122;-79
2022/10/02 02:05:47;;;;;;;11.80;1.85;;;10.90;99.90;;;;;;5094615;28;20078;-79
2022/10/02 02:08:33;;;;;;;16.60;2.83;;;10.90;99.90;;;;;;5094319;28;20375;-79
2022/10/02 02:11:17;;;;;;;11.82;2.10;;;10.90;99.90;;;;;;5093979;28;20097;-79
2022/10/02 02:13:52;;;;;;;9.18;2.65;;;10.90;99.90;;;;;;5093779;28;20044;-79
2022/10/02 02:16:27;;;;;;;16.55;2.47;;;10.90;99.90;;;;;;5094048;28;20032;-79
2022/10/02 02:19:03;;;;;;;10.68;2.70;;;10.90;99.90;;;;;;5094164;28;20044;-80
2022/10/02 02:21:53;;;;;;;8.30;2.42;;;10.90;99.90;;;;;;5094142;28;20071;-79
2022/10/02 02:24:26;;;;;;;10.23;2.30;;;10.90;99.90;;;;;;5083769;28;20052;-80
2022/10/02 02:26:57;;;;;;;11.93;2.35;;;10.80;99.90;;;;;;5094541;28;20043;-79
2022/10/02 02:29:26;;;;;;;9.80;2.05;;;10.90;99.90;;;;;;5094448;28;20095;-79
2022/10/02 02:31:56;;;;;;;11.00;2.40;;;10.80;99.90;;;;;;5094359;28;20036;-80
2022/10/02 02:34:31;;;;;;;11.98;2.70;;;10.80;99.90;;;;;;5093843;28;20029;-79
2022/10/02 02:37:03;;;;;;;9.07;1.88;;;10.80;99.90;;;;;;5076807;28;20140;-80
2022/10/02 02:40:06;;;;;;;9.18;1.90;;;10.90;99.90;;;;;;5093478;28;20062;-80
2022/10/02 02:42:39;;;;;;;7.68;1.75;;;10.90;99.90;;;;;;5062002;28;20052;-79
2022/10/02 02:45:22;;;;;;;8.03;1.87;;;10.90;99.90;;;;;;5094166;28;20054;-80
2022/10/02 02:47:54;;;;;;;8.70;2.22;;;10.90;99.90;;;;;;5076697;28;20316;-80
2022/10/02 02:50:35;;;;;;;9.20;2.08;;;10.90;99.90;;;;;;5093477;28;20525;-79
2022/10/02 02:53:10;;;;;;;10.20;2.08;;;10.90;99.90;;;;;;5076388;28;20036;-79
2022/10/02 02:55:54;;;;;;;11.13;2.15;;;10.90;99.90;;;;;;5076727;28;20039;-79
2022/10/02 02:58:52;;;;;;;14.23;2.53;;;11.00;99.90;;;;;;5093303;28;20033;-79
2022/10/02 03:01:17;;;;;;;9.63;2.15;;;11.00;99.90;;;;;;5091338;28;20036;-79
2022/10/02 03:03:43;;;;;;;12.73;2.20;;;11.00;99.90;;;;;;5091899;28;20043;-79
2022/10/02 03:06:15;;;;;;;10.80;1.73;;;11.00;99.90;;;;;;5092677;28;20148;-79
2022/10/02 03:08:41;;;;;;;10.15;1.95;;;11.00;99.90;;;;;;5091717;28;20042;-80
2022/10/02 03:11:31;;;;;;;10.88;2.28;;;11.00;99.90;;;;;;5092798;28;20040;-79
2022/10/02 03:13:56;;;;;;;13.27;2.38;;;11.00;99.90;;;;;;5093147;28;20079;-79
2022/10/02 03:16:43;;;;;;;11.85;2.17;;;11.00;99.90;;;;;;5092725;28;20075;-79
2022/10/02 03:19:36;;;;;;;8.32;1.95;;;11.00;99.90;;;;;;5092681;28;20040;-79
2022/10/02 03:22:17;;;;;;;13.98;1.88;;;11.00;99.90;;;;;;5075371;28;20085;-79
2022/10/02 03:24:48;;;;;;;10.60;2.15;;;11.00;99.90;;;;;;5092395;28;20051;-79
2022/10/02 03:27:36;;;;;;;9.63;1.95;;;10.90;99.90;;;;;;5092109;28;20502;-78
2022/10/02 03:30:11;;;;;;;9.30;2.00;;;10.90;99.90;;;;;;5092282;28;20036;-80
2022/10/02 03:32:39;;;;;;;10.13;2.38;;;10.90;99.90;;;;;;5092118;28;20040;-79
2022/10/02 03:35:10;;;;;;;13.52;2.35;;;10.90;99.90;;;;;;5092590;28;20093;-79
2022/10/02 03:37:37;;;;;;;11.52;2.25;;;11.00;99.90;;;;;;5091984;28;20043;-79
2022/10/02 03:40:04;;;;;;;13.68;2.15;;;11.00;99.90;;;;;;5092821;28;20119;-79
2022/10/02 03:42:33;;;;;;;13.32;2.53;;;11.00;99.90;;;;;;5091711;28;20055;-79
2022/10/02 03:44:59;;;;;;;11.45;2.08;;;11.00;99.90;;;;;;5092183;28;20047;-79
2022/10/02 03:47:24;;;;;;;7.82;1.90;;;11.10;99.90;;;;;;5092557;28;20462;-79
2022/10/02 03:49:50;;;;;;;13.52;2.30;;;11.10;99.90;;;;;;5092164;28;20520;-79
2022/10/02 03:52:18;;;;;;;13.93;2.33;;;11.10;99.90;;;;;;5092195;28;20036;-79
2022/10/02 03:54:44;;;;;;;11.57;2.22;;;11.00;99.90;;;;;;5092026;28;20111;-79
2022/10/02 03:57:16;;;;;;;11.45;2.45;;;11.10;99.90;;;;;;5092142;28;20094;-79
2022/10/02 03:59:55;;;;;;;13.52;2.35;;;11.10;99.90;;;;;;5091960;28;20075;-79
2022/10/02 04:02:51;;;;;;;16.48;2.72;;;11.10;99.90;;;;;;5091545;28;20040;-79
2022/10/02 04:05:20;;;;;;;12.07;2.25;;;11.10;99.90;;;;;;5091831;28;20047;-79
2022/10/02 04:07:49;;;;;;;10.00;1.95;;;11.00;99.90;;;;;;5091634;28;20043;-79
2022/10/02 04:10:29;;;;;;;10.25;2.10;;;11.00;99.90;;;;;;5091226;28;20497;-79
2022/10/02 04:13:06;;;;;;;13.77;2.30;;;11.00;99.90;;;;;;5091539;28;20093;-78
2022/10/02 04:15:53;;;;;;;10.93;2.05;;;11.00;99.90;;;;;;5099704;28;20066;-79
2022/10/02 04:18:51;;;;;;;11.27;2.45;;;11.00;99.90;;;;;;5105940;28;20110;-79
2022/10/02 04:21:42;;;;;;;14.45;2.10;;;10.90;99.90;;;;;;5108573;28;20039;-79
2022/10/02 04:24:30;;;;;;;17.35;1.98;;;10.90;99.90;;;;;;5090694;28;20055;-79
2022/10/02 04:27:29;;;;;;;14.52;2.47;;;10.90;99.90;;;;;;5091334;28;20123;-79
2022/10/02 04:30:01;;;;;;;14.30;2.25;;;10.90;99.90;;;;;;5091673;28;20043;-79
2022/10/02 04:32:30;;;;;;;14.13;2.13;;;10.90;99.90;;;;;;5091067;28;20096;-79
2022/10/02 04:34:57;;;;;;;10.82;2.05;;;10.80;99.90;;;;;;5091348;28;20067;-79
2022/10/02 04:38:05;;;;;;;14.40;2.33;;;10.80;99.90;;;;;;5091619;28;20040;-78
2022/10/02 04:41:05;;;;;;;10.00;1.88;;;10.80;99.90;;;;;;5091614;28;20451;-79
2022/10/02 04:43:55;;;;;;;11.95;2.40;;;10.70;99.90;;;;;;5091539;28;20058;-79
2022/10/02 04:46:46;;;;;;;11.90;2.40;;;10.70;99.90;;;;;;5074406;28;20050;-79
2022/10/02 04:49:39;;;;;;;12.32;2.10;;;10.70;99.90;;;;;;5091011;28;20040;-79
2022/10/02 04:52:15;;;;;;;11.80;2.10;;;10.60;99.90;;;;;;5074076;28;20032;-79
2022/10/02 04:54:56;;;;;;;13.70;2.20;;;10.60;99.90;;;;;;5074239;28;20036;-79
2022/10/02 04:57:34;;;;;;;9.82;1.90;;;10.60;99.90;;;;;;5090791;28;20048;-80
2022/10/02 05:00:09;;;;;;;12.20;2.17;;;10.60;99.90;;;;;;5091363;28;20101;-79
2022/10/02 05:03:04;;;;;;;10.95;1.88;;;10.50;99.90;;;;;;5090543;28;20066;-79
2022/10/02 05:05:48;;;;;;;13.27;2.17;;;10.50;99.90;;;;;;5091178;28;20044;-79
2022/10/02 05:08:32;;;;;;;11.02;1.80;;;10.50;99.90;;;;;;5074128;28;20044;-79
2022/10/02 05:11:16;;;;;;;;;;;10.40;99.90;;;;;;5090998;28;20127;-80
2022/10/02 05:14:07;;;;;;;10.02;1.80;;;10.40;99.90;;;;;;5091125;28;19923;-80
2022/10/02 05:17:10;;;;;;;15.18;2.50;;;10.40;99.90;;;;;;5101239;28;20126;-79
2022/10/02 05:19:57;;;;;;;12.45;1.90;;;10.30;99.90;;;;;;5111272;28;20122;-80
2022/10/02 05:22:41;;;;;;;12.32;2.10;;;10.30;99.90;;;;;;5094945;28;20075;-79
2022/10/02 05:25:48;;;;;;;12.30;1.90;;;10.30;99.90;;;;;;5091087;28;20470;-79
2022/10/02 05:28:17;;;;;;;9.60;2.00;;;10.20;99.90;;;;;;5073877;28;20104;-79
2022/10/02 05:30:53;;;;;;;14.70;2.35;;;10.20;99.90;;;;;;5090837;28;20119;-79
2022/10/02 05:33:31;;;;;;;15.48;2.97;;;10.20;99.90;;;;;;5094208;28;20075;-78
2022/10/02 05:36:20;;;;;;;10.75;2.25;;;10.20;99.90;;;;;;5094558;28;20040;-80
2022/10/02 05:39:05;;;;;;;10.48;1.88;;;10.20;99.90;;;;;;5094715;28;20047;-79
2022/10/02 05:41:49;;;;;;;14.57;2.00;;;10.20;99.90;;;;;;5094626;28;20040;-79
2022/10/02 05:44:15;;;;;;;13.77;2.03;;;10.20;99.90;;;;;;5094222;28;20055;-79
2022/10/02 05:46:57;;;;;;;12.75;1.90;;;10.20;99.90;;;;;;5094130;28;20047;-79
2022/10/02 05:49:33;;;;;;;12.15;1.98;;;10.20;99.90;;;;;;5094425;28;20032;-79
2022/10/02 05:52:15;;;;;;;15.85;2.33;;;10.20;99.90;;;;;;5093913;28;20044;-79
2022/10/02 05:54:56;;;;;;;11.38;2.00;;;10.20;99.90;;;;;;5077085;28;20058;-79
2022/10/02 05:57:37;;;;;;;11.30;1.80;;;10.10;99.90;;;;;;5094378;28;20456;-79
2022/10/02 06:00:42;;;;;;;11.88;2.47;;;10.10;99.90;;;;;;5094004;28;20062;-79
2022/10/02 06:03:24;;;;;;;15.03;1.93;;;10.10;99.90;;;;;;5080850;28;20074;-79
2022/10/02 06:06:27;;;;;;;13.05;2.28;;;10.10;99.90;;;;;;5077259;28;20327;-80
2022/10/02 06:09:04;;;;;;;13.50;2.10;;;10.20;99.90;;;;;;5094016;28;20110;-80
2022/10/02 06:11:39;;;;;;;12.82;2.17;;;10.20;99.90;;;;;;5093296;28;20048;-80
2022/10/02 06:14:15;;;;;;;12.60;1.90;;;10.20;99.90;;;;;;5104304;28;20047;-79
2022/10/02 06:17:02;;;;;;;14.00;1.90;;;10.20;99.90;;;;;;5106612;28;20036;-80
2022/10/02 06:19:43;;;;;;;11.85;1.73;;;10.20;99.90;;;;;;5093366;28;20032;-80
2022/10/02 06:22:20;;;;;;;15.38;2.15;;;10.30;99.90;;;;;;5093361;28;20410;-78
2022/10/02 06:25:12;;;;;;;14.75;2.33;;;10.30;99.90;;;;;;5093564;28;20051;-79
2022/10/02 06:27:43;;;;;;;17.23;2.45;;;10.40;99.90;;;;;;5093488;28;20046;-79
2022/10/02 06:30:13;;;;;;;13.52;2.78;;;10.40;99.90;;;;;;5093312;28;20028;-79
2022/10/02 06:33:08;;;;;;;12.40;2.13;;;10.50;99.90;;;;;;5093460;28;20085;-79
2022/10/02 06:35:52;;;;;;;10.90;2.20;;;10.60;99.90;;;;;;5083561;28;20048;-79
2022/10/02 06:38:36;;;;;;;13.85;2.38;;;10.70;99.90;;;;;;5093220;28;20040;-80
2022/10/02 06:41:14;;;;;;;10.10;2.67;;;10.70;99.90;;;;;;5093725;28;20078;-79
2022/10/02 06:44:01;;;;;;;13.30;2.60;;;10.80;99.90;;;;;;5099051;28;20066;-80
2022/10/02 06:47:05;;;;;;;10.40;2.10;;;10.90;99.90;;;;;;5113235;28;20509;-80
2022/10/02 06:49:56;;;;;;;13.25;2.33;;;11.00;99.90;;;;;;5092885;28;20036;-79
2022/10/02 06:52:38;;;;;;;17.25;2.28;;;11.30;99.90;;;;;;5092298;28;20052;-80
2022/10/02 06:55:47;;;;;;;10.88;2.00;;;11.40;99.90;;;;;;5092829;28;20071;-79
2022/10/02 06:58:37;;;;;;;16.27;2.85;;;11.60;99.90;;;;;;5092837;28;20513;-79
2022/10/02 07:01:32;;;;;;;15.75;3.17;;;11.80;99.90;;;;;;5092635;28;20079;-78
2022/10/02 07:04:18;;;;;;;12.05;2.33;;;11.90;99.90;;;;;;5092482;28;20587;-79
2022/10/02 07:06:55;;;;;;;17.92;2.42;;;12.00;99.90;;;;;;5092353;28;20036;-79
2022/10/02 07:09:44;;;;;;;14.27;2.25;;;12.00;99.90;;;;;;5092453;28;20090;-79
2022/10/02 07:12:19;;;;;;;12.85;2.50;;;12.10;99.90;;;;;;5092140;28;20123;-79
2022/10/02 07:15:17;;;;;;;15.55;2.47;;;12.20;99.90;;;;;;5092301;28;20040;-79
2022/10/02 07:18:10;;;;;;;11.25;2.10;;;12.20;99.90;;;;;;5092208;28;20044;-79
2022/10/02 07:20:50;;;;;;;13.63;2.97;;;12.20;99.90;;;;;;5092005;28;20127;-79
2022/10/02 07:23:28;;;;;;;11.48;2.55;;;12.10;99.90;;;;;;5091715;28;20039;-78
2022/10/02 07:25:58;;;;;;;10.55;2.42;;;12.10;99.90;;;;;;5091845;28;20093;-79
2022/10/02 07:28:47;;;;;;;13.50;2.00;;;12.10;99.90;;;;;;5091894;28;20054;-79
2022/10/02 07:31:30;;;;;;;10.68;2.28;;;12.00;99.90;;;;;;5091933;28;20097;-79
2022/10/02 07:34:25;;;;;;;10.10;2.80;;;12.00;99.90;;;;;;5091674;28;20036;-79
2022/10/02 07:37:19;;;;;;;13.50;2.22;;;12.10;99.90;;;;;;5070132;28;20055;-78
2022/10/02 07:40:05;;;;;;;13.38;2.42;;;12.30;99.90;;;;;;5091520;28;20683;-79
2022/10/02 07:42:30;;;;;;;10.77;2.22;;;12.50;99.90;;;;;;5091295;28;20048;-78
2022/10/02 07:45:24;;;;;;;11.93;3.20;;;12.60;99.90;;;;;;5091830;28;20474;-79
2022/10/02 07:48:12;;;;;;;10.90;2.37;;;12.60;99.90;;;;;;5091811;28;20497;-80
2022/10/02 07:51:45;;;;;;;16.60;2.67;;;12.50;99.90;;;;;;5092620;28;20036;-80
2022/10/02 07:54:03;;;;;;;12.57;2.20;;;12.40;99.90;;;;;;5092124;28;20631;-81
2022/10/02 07:56:29;;;;;;;12.82;2.63;;;12.40;99.90;;;;;;5075783;28;20044;-80
2022/10/02 07:59:06;;;;;;;10.25;1.98;;;12.30;99.90;;;;;;5092722;28;20524;-80
2022/10/02 08:01:35;;;;;;;12.15;2.38;;;12.30;99.90;;;;;;5092528;28;20048;-81
2022/10/02 08:04:09;;;;;;;9.90;2.00;;;12.30;99.90;;;;;;5092803;28;20427;-80
2022/10/02 08:06:35;;;;;;;;;;;12.30;99.90;;;;;;5091981;28;20397;-80
2022/10/02 08:09:10;;;;;;;14.30;2.42;;;12.30;99.90;;;;;;5091332;28;19916;-80
2022/10/02 08:11:50;;;;;;;11.50;2.47;;;12.40;99.90;;;;;;5092128;28;20051;-81
2022/10/02 08:14:21;;;;;;;17.08;2.53;;;12.40;99.90;;;;;;5092950;28;20040;-81
2022/10/02 08:16:50;;;;;;;11.60;2.30;;;12.40;99.90;;;;;;5092492;28;20040;-81
2022/10/02 08:19:39;;;;;;;14.65;2.58;;;12.40;99.90;;;;;;5075777;28;20088;-80
2022/10/02 08:22:22;;;;;;;14.02;2.22;;;12.30;99.90;;;;;;5075242;28;20082;-80
2022/10/02 08:24:52;;;;;;;10.97;2.73;;;12.30;99.90;;;;;;5092297;28;20126;-81
2022/10/02 08:27:23;;;;;;;12.43;2.40;;;12.40;99.90;;;;;;5092196;28;20524;-81
2022/10/02 08:29:56;;;;;;;11.95;3.03;;;12.40;99.90;;;;;;5092568;28;20055;-81
2022/10/02 08:32:29;;;;;;;14.18;2.90;;;12.40;99.90;;;;;;5091896;28;20501;-80
2022/10/02 08:34:55;;;;;;;12.50;2.78;;;12.40;99.90;;;;;;5075482;28;20061;-80
2022/10/02 08:37:42;;;;;;;9.43;2.30;;;12.50;99.90;;;;;;5092221;28;20036;-81
2022/10/02 08:40:27;;;;;;;9.98;2.67;;;12.50;99.90;;;;;;5091985;28;20044;-80
2022/10/02 08:43:08;;;;;;;13.70;3.03;;;12.60;99.90;;;;;;5091834;28;20044;-80
2022/10/02 08:46:07;;;;;;;9.38;2.63;;;12.60;99.90;;;;;;5092441;28;20044;-81
2022/10/02 08:48:53;;;;;;;15.55;2.80;;;12.70;99.90;;;;;;5092143;28;20075;-81
2022/10/02 08:51:52;;;;;;;14.63;2.58;;;12.80;99.90;;;;;;5092949;28;20115;-81
2022/10/02 08:54:56;;;;;;;10.40;2.30;;;12.80;99.90;;;;;;5092364;28;20046;-81
2022/10/02 08:57:44;;;;;;;;;;;12.80;99.90;;;;;;5092569;28;20066;-81
2022/10/02 09:00:24;;;;;;;12.73;2.70;;;12.90;99.90;;;;;;5092231;28;20009;-80
2022/10/02 09:03:23;;;;;;;11.98;2.20;;;12.90;99.90;;;;;;5074685;28;20104;-80
2022/10/02 09:06:10;;;;;;;14.25;3.00;;;13.10;99.90;;;;;;5093728;28;20109;-80
2022/10/02 09:08:57;;;;;;;14.40;2.95;;;13.30;99.90;;;;;;5096043;28;20078;-79
2022/10/02 09:11:46;;;;;;;10.65;2.42;;;13.50;99.90;;;;;;5079310;28;20074;-80
2022/10/02 09:14:14;;;;;;;12.00;3.40;;;13.70;99.90;;;;;;5095337;28;20085;-80
2022/10/02 09:17:09;;;;;;;13.50;2.67;;;13.90;99.90;;;;;;5095185;28;20036;-79
2022/10/02 09:20:12;;;;;;;10.80;2.20;;;14.10;99.90;;;;;;5098035;28;20066;-79
2022/10/02 09:23:02;;;;;;;12.02;2.50;;;14.10;99.90;;;;;;5115603;28;20100;-79
2022/10/02 09:26:09;;;;;;;7.13;1.70;;;14.10;99.90;;;;;;5102953;28;20526;-79
2022/10/02 09:28:54;;;;;;;15.82;2.30;;;14.20;99.90;;;;;;5095357;28;20040;-79
2022/10/02 09:31:29;;;;;;;11.55;2.13;;;14.30;99.90;;;;;;5094691;28;20036;-79
2022/10/02 09:34:12;;;;;;;9.68;2.30;;;14.40;99.90;;;;;;5094955;28;20071;-79
2022/10/02 09:37:05;;;;;;;10.68;2.70;;;14.50;99.90;;;;;;5077879;28;20044;-78
2022/10/02 09:39:50;;;;;;;8.00;1.92;;;14.50;99.90;;;;;;5094652;28;20040;-79
2022/10/02 09:42:21;;;;;;;10.10;1.88;;;14.50;99.90;;;;;;5077316;28;20469;-79
2022/10/02 09:45:22;;;;;;;11.07;2.42;;;14.30;99.90;;;;;;5094072;28;20043;-79
2022/10/02 09:48:14;;;;;;;15.18;2.00;;;14.20;99.90;;;;;;5094272;28;20083;-79
2022/10/02 09:51:26;;;;;;;13.77;2.10;;;14.20;99.90;;;;;;5094038;28;20093;-79
2022/10/02 09:54:09;;;;;;;9.00;1.88;;;14.30;99.90;;;;;;5077019;28;20428;-79
2022/10/02 09:57:05;;;;;;;12.45;2.65;;;14.50;99.90;;;;;;5076716;28;20123;-80
2022/10/02 09:59:57;;;;;;;11.95;2.70;;;14.60;99.90;;;;;;5094022;28;20387;-78
2022/10/02 10:02:34;;;;;;;10.60;2.80;;;14.70;99.90;;;;;;5093608;28;20044;-79
2022/10/02 10:05:24;;;;;;;12.40;2.80;;;14.70;99.90;;;;;;5093952;28;20040;-80
2022/10/02 10:08:21;;;;;;;11.00;2.70;;;14.80;99.90;;;;;;5093727;28;20060;-79
2022/10/02 10:11:34;;;;;;;17.60;3.10;;;14.90;99.90;;;;;;5093868;28;20051;-79
2022/10/02 10:14:11;;;;;;;15.20;2.97;;;15.00;99.90;;;;;;5062606;28;20462;-79
2022/10/02 10:17:04;;;;;;;12.35;2.38;;;15.10;99.90;;;;;;5100675;28;20046;-79
2022/10/02 10:20:00;;;;;;;13.50;2.47;;;15.20;99.90;;;;;;5092313;28;20044;-79
2022/10/02 10:22:37;;;;;;;11.88;2.58;;;15.20;99.90;;;;;;5093055;28;20036;-78
2022/10/02 10:25:35;;;;;;;11.75;2.35;;;15.40;99.90;;;;;;5093226;28;20085;-80
2022/10/02 10:28:18;;;;;;;12.00;2.65;;;15.60;99.90;;;;;;5093355;28;20090;-80
2022/10/02 10:31:17;;;;;;;15.45;2.83;;;15.80;99.90;;;;;;5093539;28;20449;-79
2022/10/02 10:34:10;;;;;;;16.33;2.70;;;16.00;99.90;;;;;;5076223;28;20040;-80
2022/10/02 10:39:53;;;;;;;16.67;2.72;;;15.70;99.90;;;;;;5092936;28;20050;-79
2022/10/02 10:42:48;;;;;;;12.77;2.40;;;15.70;99.90;;;;;;5092542;28;20115;-78
2022/10/02 10:45:25;;;;;;;11.70;2.28;;;15.80;99.90;;;;;;5092948;28;20039;-79
2022/10/02 10:48:23;;;;;;;12.43;2.50;;;15.90;99.90;;;;;;5092701;28;20036;-79
2022/10/02 10:51:13;;;;;;;10.98;2.15;;;15.90;99.90;;;;;;5093008;28;20118;-78
2022/10/02 10:54:04;;;;;;;18.30;2.50;;;15.90;99.90;;;;;;5092886;28;20598;-79
2022/10/02 10:56:55;;;;;;;13.52;2.40;;;16.00;99.90;;;;;;5092555;28;20039;-78
2022/10/02 10:59:41;;;;;;;11.20;2.50;;;15.90;99.90;;;;;;5092815;28;20052;-80
2022/10/02 11:02:53;;;;;;;12.75;2.15;;;16.10;99.90;;;;;;5092376;28;20046;-79
2022/10/02 11:05:50;;;;;;;9.77;2.17;;;16.10;99.90;;;;;;5092307;28;20050;-79
2022/10/02 11:08:42;;;;;;;13.80;2.50;;;16.30;99.90;;;;;;5091567;28;20040;-79
2022/10/02 11:11:28;;;;;;;12.25;2.33;;;16.30;99.90;;;;;;5091455;28;20047;-82
2022/10/02 11:14:19;;;;;;;9.02;1.80;;;16.40;99.90;;;;;;5075353;28;20044;-79
2022/10/02 11:17:02;;;;;;;12.77;1.90;;;16.40;99.90;;;;;;5065088;28;20447;-79
2022/10/02 11:19:27;;;;;;;10.95;2.15;;;16.50;99.90;;;;;;5090467;28;20047;-79
2022/10/02 11:22:37;;;;;;;12.43;2.60;;;16.50;99.90;;;;;;5091041;28;20572;-78
2022/10/02 11:25:32;;;;;;;10.80;2.40;;;16.60;99.90;;;;;;5092147;28;20531;-78
2022/10/02 11:28:00;;;;;;;;;;;16.60;99.90;;;;;;5092285;28;20461;-78
2022/10/02 11:31:06;;;;;;;14.45;2.22;;;16.70;99.90;;;;;;5090834;28;20010;-78
2022/10/02 11:33:50;;;;;;;10.70;2.25;;;16.90;99.90;;;;;;5067862;28;20051;-78
2022/10/02 11:36:23;;;;;;;12.82;1.80;;;17.00;99.90;;;;;;5091970;28;20047;-79
2022/10/02 11:39:19;;;;;;;14.25;2.08;;;17.10;99.90;;;;;;5075161;28;20127;-82
2022/10/02 11:42:19;;;;;;;11.20;2.00;;;17.10;99.90;;;;;;5091568;28;20186;-79
2022/10/02 11:44:56;;;;;;;12.25;1.75;;;17.20;99.90;;;;;;5092015;28;20466;-79
2022/10/02 11:47:57;;;;;;;8.57;1.88;;;17.20;99.90;;;;;;5091376;28;20118;-79
2022/10/02 11:50:29;;;;;;;8.60;2.05;;;17.10;99.90;;;;;;5091418;28;20093;-77
2022/10/02 11:53:46;;;;;;;15.70;2.22;;;17.20;99.90;;;;;;5091142;28;20096;-78
2022/10/02 11:56:38;;;;;;;12.00;2.00;;;17.20;99.90;;;;;;5058078;28;20147;-77
2022/10/02 11:59:40;;;;;;;9.77;2.30;;;17.30;99.90;;;;;;5091285;28;20039;-78
2022/10/02 12:02:42;;;;;;;12.10;2.13;;;17.50;99.90;;;;;;5067725;28;20043;-78
2022/10/02 12:05:41;;;;;;;7.93;1.58;;;17.60;99.90;;;;;;5074444;28;20126;-79
2022/10/02 12:08:18;;;;;;;12.07;2.40;;;17.70;99.90;;;;;;5091110;28;20048;-79
2022/10/02 12:11:01;;;;;;;7.85;1.80;;;17.60;99.90;;;;;;5091078;28;20437;-77
2022/10/02 12:14:03;;;;;;;9.40;1.73;;;17.50;99.90;;;;;;5091067;28;20040;-77
2022/10/02 12:16:35;;;;;;;11.07;2.05;;;17.50;99.90;;;;;;5074565;28;20497;-79
2022/10/02 12:19:10;;;;;;;8.80;1.80;;;17.30;99.90;;;;;;5091043;28;20036;-80
2022/10/02 12:27:49;;;;;;;10.38;1.92;;;16.70;99.90;;;;;;5090593;28;20055;-78
2022/10/02 12:30:21;;;;;;;10.18;1.92;;;16.80;99.90;;;;;;5090832;28;20075;-78
2022/10/02 12:33:06;;;;;;;11.43;1.70;;;17.10;99.90;;;;;;5090655;28;20048;-78
2022/10/02 12:36:07;;;;;;;9.15;2.15;;;17.00;99.90;;;;;;5090680;28;20078;-77
2022/10/02 12:38:54;;;;;;;11.18;2.10;;;17.00;99.90;;;;;;5090635;28;20036;-78
2022/10/02 12:41:34;;;;;;;12.50;2.60;;;17.20;99.90;;;;;;5090031;28;20036;-79
2022/10/02 12:44:26;;;;;;;13.50;2.03;;;17.50;99.90;;;;;;5090627;28;20044;-78
2022/10/02 12:47:13;;;;;;;13.50;1.92;;;17.50;99.90;;;;;;5090635;28;20512;-78
2022/10/02 12:50:16;;;;;;;8.93;1.73;;;17.20;99.90;;;;;;5089695;28;20040;-77
2022/10/02 12:52:45;;;;;;;9.85;2.05;;;17.00;99.90;;;;;;5090622;28;20109;-78
2022/10/02 12:55:39;;;;;;;7.60;1.90;;;17.20;99.90;;;;;;5091896;28;20040;-78
2022/10/02 12:58:13;;;;;;;9.80;2.40;;;17.40;99.90;;;;;;5090602;28;20505;-78
2022/10/02 13:01:31;;;;;;;10.05;2.15;;;17.40;99.90;;;;;;5090436;28;20055;-78
2022/10/02 13:04:37;;;;;;;12.43;2.35;;;17.20;99.90;;;;;;5090763;28;20044;-78
2022/10/02 13:07:43;;;;;;;13.63;2.05;;;17.00;99.90;;;;;;5090306;28;20048;-78
2022/10/02 13:10:20;;;;;;;14.07;2.38;;;16.60;99.90;;;;;;5090279;28;20039;-79
2022/10/02 13:13:17;;;;;;;10.57;2.55;;;16.60;99.90;;;;;;5089994;28;20502;-79
2022/10/02 13:15:57;;;;;;;11.48;2.50;;;16.60;99.90;;;;;;5090209;28;20067;-79
2022/10/02 13:18:51;;;;;;;11.73;2.25;;;16.70;99.90;;;;;;5090331;28;20032;-78
2022/10/02 13:21:45;;;;;;;13.95;2.40;;;16.80;99.90;;;;;;5090102;28;20054;-77
2022/10/02 13:24:26;;;;;;;10.50;2.00;;;17.00;99.90;;;;;;5090414;28;20457;-78
2022/10/02 13:27:09;;;;;;;8.48;1.98;;;17.20;99.90;;;;;;5089456;28;20071;-78
2022/10/02 13:29:46;;;;;;;9.37;2.33;;;17.30;99.90;;;;;;5089357;28;20036;-80
2022/10/02 13:32:30;;;;;;;13.65;2.00;;;17.40;99.90;;;;;;5090060;28;20040;-78
2022/10/02 13:35:14;;;;;;;10.02;1.88;;;17.50;99.90;;;;;;5090397;28;20043;-79
2022/10/02 13:37:54;;;;;;;10.63;2.03;;;17.60;99.90;;;;;;5090311;28;20394;-78
2022/10/02 13:40:44;;;;;;;10.80;2.05;;;17.80;99.90;;;;;;5090427;28;20460;-81
2022/10/02 13:43:30;;;;;;;12.10;1.90;;;17.90;99.90;;;;;;5089846;28;20111;-77
2022/10/02 13:46:03;;;;;;;11.10;2.25;;;18.10;99.90;;;;;;5089928;28;20044;-80
2022/10/02 13:48:39;;;;;;;12.25;2.30;;;18.30;99.90;;;;;;5090507;28;20044;-78
2022/10/02 13:51:13;;;;;;;10.35;1.83;;;18.30;99.90;;;;;;5089885;28;20461;-77
2022/10/02 13:53:43;;;;;;;;;;;18.60;99.90;;;;;;5075862;28;20040;-78
2022/10/02 13:56:33;;;;;;;12.75;2.17;;;18.70;99.90;;;;;;5093685;28;20011;-77
2022/10/02 13:59:35;;;;;;;15.45;2.30;;;18.80;99.90;;;;;;5093563;28;20051;-77
2022/10/02 14:02:16;;;;;;;11.25;2.20;;;18.60;99.90;;;;;;5093361;28;20032;-78
2022/10/02 14:05:04;;;;;;;12.77;2.08;;;18.60;99.90;;;;;;5093936;28;20036;-78
2022/10/02 14:07:58;;;;;;;12.63;2.22;;;18.50;99.90;;;;;;5093353;28;20047;-78
2022/10/02 14:10:52;;;;;;;10.25;2.00;;;18.20;99.90;;;;;;5093785;28;20398;-79
2022/10/02 14:13:47;;;;;;;11.93;2.42;;;17.90;99.90;;;;;;5092902;28;20529;-78
2022/10/02 14:16:42;;;;;;;9.93;1.88;;;17.90;99.90;;;;;;5093899;28;20115;-79